createdAt,value
2019-05-06T00:00:56.520Z,54.70
2019-05-06T00:03:16.019Z,54.80
2019-05-06T00:05:43.610Z,55.00
2019-05-06T00:08:10.431Z,55.10
2019-05-06T00:10:36.970Z,54.90
2019-05-06T00:13:04.629Z,55.00
2019-05-06T00:15:31.468Z,54.90
2019-05-06T00:17:58.927Z,55.00
2019-05-06T00:20:25.478Z,55.20
2019-05-06T00:22:54.682Z,55.00
2019-05-06T00:25:34.451Z,54.90
2019-05-06T00:28:18.851Z,55.00
2019-05-06T00:30:49.805Z,55.10
2019-05-06T00:33:16.323Z,55.10
2019-05-06T00:35:44.942Z,55.10
2019-05-06T00:38:10.904Z,55.20
2019-05-06T00:40:39.244Z,55.20
2019-05-06T00:43:07.596Z,55.10
2019-05-06T00:45:34.186Z,55.20
2019-05-06T00:48:00.808Z,55.20
2019-05-06T00:50:27.359Z,55.10
2019-05-06T00:52:54.663Z,55.20
2019-05-06T00:55:21.002Z,55.30
2019-05-06T00:57:47.552Z,55.30
2019-05-06T01:00:16.092Z,55.20
2019-05-06T01:02:43.932Z,55.30
2019-05-06T01:05:10.736Z,55.30
2019-05-06T01:07:37.269Z,55.20
2019-05-06T01:10:05.599Z,55.40
2019-05-06T01:12:34.555Z,56.00
2019-05-06T01:15:03.721Z,55.40
2019-05-06T01:17:30.252Z,55.50
2019-05-06T01:19:56.747Z,55.50
2019-05-06T01:22:24.644Z,55.40
2019-05-06T01:24:51.183Z,55.60
2019-05-06T01:27:17.729Z,55.50
2019-05-06T01:29:44.528Z,55.50
2019-05-06T01:32:11.095Z,55.50
2019-05-06T01:34:37.849Z,55.60
2019-05-06T01:37:04.403Z,55.60
2019-05-06T01:39:44.847Z,55.70
2019-05-06T01:42:31.331Z,55.50
2019-05-06T01:44:57.795Z,55.60
2019-05-06T01:47:25.134Z,55.60
2019-05-06T01:49:53.604Z,55.60
2019-05-06T01:52:19.879Z,55.70
2019-05-06T01:54:46.422Z,55.50
2019-05-06T01:57:13.752Z,55.40
2019-05-06T01:59:40.615Z,55.50
2019-05-06T02:02:07.212Z,55.60
2019-05-06T02:04:33.856Z,55.50
2019-05-06T02:07:00.365Z,55.60
2019-05-06T02:09:26.795Z,55.70
2019-05-06T02:11:53.632Z,55.50
2019-05-06T02:14:20.759Z,55.60
2019-05-06T02:16:47.395Z,55.80
2019-05-06T02:19:14.819Z,55.70
2019-05-06T02:21:43.902Z,55.50
2019-05-06T02:24:13.476Z,55.70
2019-05-06T02:26:40.204Z,55.50
2019-05-06T02:29:20.548Z,55.70
2019-05-06T02:32:15.751Z,55.60
2019-05-06T02:34:46.309Z,55.50
2019-05-06T02:37:15.064Z,55.70
2019-05-06T02:39:43.789Z,55.60
2019-05-06T02:42:12.809Z,55.50
2019-05-06T02:44:38.527Z,55.60
2019-05-06T02:47:23.408Z,55.70
2019-05-06T02:49:53.514Z,55.60
2019-05-06T02:52:22.806Z,55.60
2019-05-06T02:54:48.869Z,55.50
2019-05-06T02:57:15.394Z,55.50
2019-05-06T02:59:44.199Z,55.70
2019-05-06T03:02:13.719Z,55.50
2019-05-06T03:04:39.171Z,55.60
2019-05-06T03:07:05.748Z,55.70
2019-05-06T03:09:33.986Z,56.30
2019-05-06T03:12:06.199Z,56.20
2019-05-06T03:14:34.534Z,55.90
2019-05-06T03:17:05.003Z,56.40
2019-05-06T03:19:34.104Z,57.50
2019-05-06T03:22:05.558Z,57.10
2019-05-06T03:24:34.066Z,56.90
2019-05-06T03:27:04.130Z,56.80
2019-05-06T03:29:28.914Z,56.70
2019-05-06T03:31:57.094Z,56.60
2019-05-06T03:34:49.453Z,56.60
2019-05-06T03:36:56.085Z,56.40
2019-05-06T03:39:23.307Z,56.50
2019-05-06T03:41:53.814Z,56.50
2019-05-06T03:44:23.643Z,56.60
2019-05-06T03:47:07.141Z,56.90
2019-05-06T03:49:35.598Z,57.30
2019-05-06T03:52:02.899Z,57.20
2019-05-06T03:54:29.698Z,57.30
2019-05-06T03:56:57.045Z,57.30
2019-05-06T03:59:24.372Z,57.30
2019-05-06T04:01:53.445Z,57.40
2019-05-06T04:04:19.601Z,57.50
2019-05-06T04:06:46.329Z,57.70
2019-05-06T04:09:13.458Z,57.70
2019-05-06T04:11:42.998Z,57.70
2019-05-06T04:14:08.565Z,57.60
2019-05-06T04:16:45.724Z,57.70
2019-05-06T04:19:35.566Z,58.00
2019-05-06T04:22:15.899Z,57.90
2019-05-06T04:25:03.959Z,58.30
2019-05-06T04:27:45.674Z,58.20
2019-05-06T04:30:13.643Z,58.10
2019-05-06T04:32:49.233Z,57.80
2019-05-06T04:35:15.640Z,57.80
2019-05-06T04:37:42.938Z,57.80
2019-05-06T04:40:09.519Z,57.80
2019-05-06T04:42:36.345Z,57.80
2019-05-06T04:45:04.720Z,57.70
2019-05-06T04:47:32.732Z,57.70
2019-05-06T04:49:59.447Z,57.60
2019-05-06T04:52:26.289Z,57.50
2019-05-06T04:54:53.490Z,57.60
2019-05-06T04:57:23.462Z,57.00
2019-05-06T04:59:48.692Z,57.50
2019-05-06T05:02:15.140Z,57.50
2019-05-06T05:04:43.269Z,57.50
2019-05-06T05:07:12.662Z,57.40
2019-05-06T05:09:38.792Z,57.40
2019-05-06T05:12:13.349Z,57.40
2019-05-06T05:14:42.327Z,57.30
2019-05-06T05:17:16.383Z,57.20
2019-05-06T05:19:43.004Z,57.20
2019-05-06T05:22:09.721Z,57.20
2019-05-06T05:24:36.385Z,57.10
2019-05-06T05:27:04.087Z,57.10
2019-05-06T05:29:32.484Z,57.00
2019-05-06T05:31:59.548Z,57.20
2019-05-06T05:34:38.004Z,57.10
2019-05-06T05:36:57.972Z,57.10
2019-05-06T05:39:24.378Z,57.00
2019-05-06T05:41:52.397Z,56.90
2019-05-06T05:44:22.709Z,56.80
2019-05-06T05:46:49.797Z,56.80
2019-05-06T05:49:24.772Z,56.80
2019-05-06T05:51:52.085Z,56.80
2019-05-06T05:54:18.792Z,56.70
2019-05-06T05:56:45.397Z,56.60
2019-05-06T05:59:12.248Z,56.60
2019-05-06T06:01:39.104Z,56.80
2019-05-06T06:04:05.644Z,56.90
2019-05-06T06:06:33.165Z,56.90
2019-05-06T06:09:00.123Z,56.80
2019-05-06T06:11:43.578Z,56.80
2019-05-06T06:14:28.748Z,57.00
2019-05-06T06:17:13.479Z,56.80
2019-05-06T06:19:42.475Z,56.70
2019-05-06T06:22:16.554Z,56.90
2019-05-06T06:24:43.730Z,56.80
2019-05-06T06:27:12.542Z,56.80
2019-05-06T06:29:39.388Z,56.70
2019-05-06T06:32:13.579Z,56.70
2019-05-06T06:34:42.776Z,56.50
2019-05-06T06:37:29.164Z,56.40
2019-05-06T06:39:56.524Z,56.20
2019-05-06T06:42:23.245Z,56.00
2019-05-06T06:44:51.932Z,56.00
2019-05-06T06:47:18.285Z,55.90
2019-05-06T06:49:45.113Z,56.00
2019-05-06T06:52:14.753Z,55.90
2019-05-06T06:54:40.302Z,55.70
2019-05-06T06:57:09.474Z,55.80
2019-05-06T06:59:47.121Z,55.90
2019-05-06T07:02:18.502Z,55.70
2019-05-06T07:04:47.113Z,55.90
2019-05-06T07:07:15.534Z,55.90
2019-05-06T07:09:42.089Z,55.80
2019-05-06T07:12:08.601Z,55.90
2019-05-06T07:14:36.198Z,55.90
2019-05-06T07:17:03.001Z,58.10
2019-05-06T07:19:42.272Z,57.20
2019-05-06T07:22:08.927Z,57.20
2019-05-06T07:24:35.868Z,64.60
2019-05-06T07:27:07.335Z,59.10
2019-05-06T07:29:33.872Z,59.20
2019-05-06T07:32:02.514Z,58.80
2019-05-06T07:34:29.332Z,60.40
2019-05-06T07:36:55.906Z,59.70
2019-05-06T07:39:24.001Z,60.10
2019-05-06T07:41:58.217Z,60.90
2019-05-06T07:44:35.614Z,61.00
2019-05-06T07:47:04.047Z,60.30
2019-05-06T07:49:32.966Z,63.30
2019-05-06T07:51:59.811Z,61.60
2019-05-06T07:54:26.704Z,60.00
2019-05-06T07:56:53.546Z,59.60
2019-05-06T07:59:22.298Z,59.60
2019-05-06T08:01:48.480Z,59.60
2019-05-06T08:04:14.932Z,59.20
2019-05-06T08:06:42.678Z,59.60
2019-05-06T08:09:09.603Z,59.70
2019-05-06T08:11:36.299Z,59.90
2019-05-06T08:14:03.738Z,60.10
2019-05-06T08:16:31.976Z,60.20
2019-05-06T08:18:58.634Z,61.20
2019-05-06T08:21:29.957Z,60.00
2019-05-06T08:23:56.537Z,60.00
2019-05-06T08:26:23.262Z,60.10
2019-05-06T08:28:52.387Z,60.20
2019-05-06T08:31:22.357Z,60.00
2019-05-06T08:33:49.228Z,60.10
2019-05-06T08:36:22.587Z,60.30
2019-05-06T08:38:53.596Z,59.80
2019-05-06T08:41:22.626Z,59.90
2019-05-06T08:43:49.176Z,59.80
2019-05-06T08:46:15.875Z,60.00
2019-05-06T08:48:42.866Z,59.90
2019-05-06T08:51:13.057Z,60.10
2019-05-06T08:53:42.458Z,60.10
2019-05-06T08:56:12.592Z,59.80
2019-05-06T08:58:45.405Z,60.00
2019-05-06T09:01:22.323Z,60.20
2019-05-06T09:03:48.684Z,59.80
2019-05-06T09:06:26.947Z,59.90
2019-05-06T09:08:43.683Z,59.80
2019-05-06T09:11:12.189Z,59.80
2019-05-06T09:13:39.430Z,60.90
2019-05-06T09:16:06.444Z,60.00
2019-05-06T09:18:33.015Z,59.90
2019-05-06T09:21:03.457Z,60.00
2019-05-06T09:23:29.951Z,59.90
2019-05-06T09:25:56.640Z,60.10
2019-05-06T09:28:33.989Z,60.90
2019-05-06T09:31:09.730Z,60.10
2019-05-06T09:33:38.335Z,60.10
2019-05-06T09:36:05.392Z,60.40
2019-05-06T09:38:32.213Z,60.60
2019-05-06T09:40:58.889Z,60.60
2019-05-06T09:43:25.707Z,60.60
2019-05-06T09:45:52.966Z,60.40
2019-05-06T09:48:38.032Z,60.40
2019-05-06T09:51:04.975Z,60.70
2019-05-06T09:53:33.758Z,61.50
2019-05-06T09:56:05.063Z,62.10
2019-05-06T09:58:33.796Z,63.10
2019-05-06T10:01:02.655Z,64.50
2019-05-06T10:03:32.129Z,64.70
2019-05-06T10:06:13.083Z,64.50
2019-05-06T10:08:39.864Z,64.00
2019-05-06T10:11:06.303Z,65.20
2019-05-06T10:13:33.003Z,65.20
2019-05-06T10:15:59.665Z,64.50
2019-05-06T10:18:26.110Z,66.30
2019-05-06T10:20:52.849Z,67.10
2019-05-06T10:23:19.426Z,67.20
2019-05-06T10:25:46.582Z,66.90
2019-05-06T10:28:26.908Z,67.40
2019-05-06T10:30:53.787Z,68.00
2019-05-06T10:33:22.231Z,68.00
2019-05-06T10:35:48.884Z,68.10
2019-05-06T10:38:34.199Z,68.70
2019-05-06T10:41:06.714Z,68.00
2019-05-06T10:43:38.059Z,69.10
2019-05-06T10:46:04.759Z,66.60
2019-05-06T10:48:31.477Z,68.20
2019-05-06T10:50:59.770Z,66.70
2019-05-06T10:53:26.725Z,68.10
2019-05-06T10:55:55.014Z,68.70
2019-05-06T10:58:22.746Z,68.60
2019-05-06T11:00:52.880Z,68.60
2019-05-06T11:03:22.648Z,69.30
2019-05-06T11:05:49.763Z,69.20
2019-05-06T11:08:16.470Z,68.80
2019-05-06T11:10:45.312Z,68.80
2019-05-06T11:13:12.846Z,68.70
2019-05-06T11:15:39.647Z,68.20
2019-05-06T11:18:06.515Z,68.00
2019-05-06T11:20:36.172Z,68.30
2019-05-06T11:23:02.680Z,68.10
2019-05-06T11:25:29.337Z,67.70
2019-05-06T11:27:55.780Z,67.50
2019-05-06T11:30:33.251Z,67.30
2019-05-06T11:33:18.515Z,68.00
2019-05-06T11:35:52.894Z,66.90
2019-05-06T11:38:22.765Z,67.20
2019-05-06T11:40:49.361Z,66.90
2019-05-06T11:43:15.799Z,66.40
2019-05-06T11:45:43.246Z,66.30
2019-05-06T11:48:14.361Z,67.20
2019-05-06T11:50:39.563Z,67.60
2019-05-06T11:53:06.180Z,67.70
2019-05-06T11:55:38.423Z,67.90
2019-05-06T11:58:02.588Z,68.10
2019-05-06T12:00:33.335Z,68.20
2019-05-06T12:02:59.611Z,68.30
2019-05-06T12:05:26.289Z,68.10
2019-05-06T12:08:01.884Z,68.00
2019-05-06T12:10:22.469Z,67.70
2019-05-06T12:12:49.827Z,67.70
2019-05-06T12:15:17.560Z,67.50
2019-05-06T12:17:44.171Z,66.90
2019-05-06T12:20:12.927Z,66.60
2019-05-06T12:22:39.653Z,66.80
2019-05-06T12:25:11.332Z,67.40
2019-05-06T12:27:44.558Z,67.40
2019-05-06T12:30:19.041Z,67.20
2019-05-06T12:32:49.970Z,66.90
2019-05-06T12:35:16.664Z,66.50
2019-05-06T12:37:45.268Z,66.50
2019-05-06T12:40:12.557Z,66.50
2019-05-06T12:42:46.404Z,66.00
2019-05-06T12:45:24.151Z,66.10
2019-05-06T12:47:53.504Z,66.20
2019-05-06T12:50:22.519Z,66.30
2019-05-06T12:52:49.222Z,66.10
2019-05-06T12:55:21.380Z,67.20
2019-05-06T12:57:44.243Z,66.50
2019-05-06T13:00:13.047Z,65.70
2019-05-06T13:02:40.067Z,65.80
2019-05-06T13:05:06.657Z,65.60
2019-05-06T13:07:34.978Z,65.70
2019-05-06T13:10:02.887Z,65.90
2019-05-06T13:12:33.501Z,65.60
2019-05-06T13:14:59.793Z,65.50
2019-05-06T13:17:30.311Z,65.20
2019-05-06T13:19:57.047Z,64.40
2019-05-06T13:22:33.952Z,41.10
2019-05-06T13:25:03.852Z,34.60
2019-05-06T13:27:32.625Z,43.00
2019-05-06T13:29:59.274Z,47.10
2019-05-06T13:32:27.622Z,47.90
2019-05-06T13:34:54.067Z,48.90
2019-05-06T13:37:22.906Z,49.70
2019-05-06T13:39:49.367Z,50.60
2019-05-06T13:42:17.761Z,51.10
2019-05-06T13:44:44.285Z,51.90
2019-05-06T13:47:12.769Z,52.70
2019-05-06T13:49:43.705Z,53.30
2019-05-06T13:52:12.627Z,53.50
2019-05-06T13:54:39.278Z,54.00
2019-05-06T13:57:05.940Z,54.10
2019-05-06T13:59:35.346Z,54.70
2019-05-06T14:02:07.332Z,54.90
2019-05-06T14:04:33.854Z,55.30
2019-05-06T14:07:03.398Z,55.30
2019-05-06T14:09:34.575Z,55.60
2019-05-06T14:11:57.624Z,55.60
2019-05-06T14:14:25.469Z,55.80
2019-05-06T14:16:53.374Z,56.00
2019-05-06T14:19:22.360Z,56.20
2019-05-06T14:21:48.774Z,56.20
2019-05-06T14:24:17.365Z,56.50
2019-05-06T14:26:57.652Z,56.70
2019-05-06T14:29:24.920Z,56.70
2019-05-06T14:31:58.429Z,56.70
2019-05-06T14:34:25.189Z,56.70
2019-05-06T14:36:53.354Z,56.80
2019-05-06T14:39:24.503Z,56.90
2019-05-06T14:41:53.492Z,56.90
2019-05-06T14:44:22.832Z,56.90
2019-05-06T14:46:53.329Z,57.10
2019-05-06T14:49:22.307Z,57.20
2019-05-06T14:51:48.329Z,57.10
2019-05-06T14:54:15.894Z,57.20
2019-05-06T14:56:47.356Z,57.40
2019-05-06T14:59:14.051Z,57.30
2019-05-06T15:01:45.089Z,57.10
2019-05-06T15:04:09.149Z,57.30
2019-05-06T15:06:36.068Z,57.10
2019-05-06T15:09:05.542Z,57.70
2019-05-06T15:11:32.527Z,57.10
2019-05-06T15:13:59.737Z,57.10
2019-05-06T15:16:27.160Z,57.10
2019-05-06T15:18:53.937Z,57.10
2019-05-06T15:21:33.338Z,57.00
2019-05-06T15:23:48.858Z,56.90
2019-05-06T15:26:16.283Z,56.90
2019-05-06T15:28:43.025Z,56.90
2019-05-06T15:31:20.352Z,56.80
2019-05-06T15:33:52.922Z,56.80
2019-05-06T15:36:24.273Z,56.90
2019-05-06T15:38:52.766Z,56.80
2019-05-06T15:41:19.346Z,56.80
2019-05-06T15:43:46.006Z,56.90
2019-05-06T15:46:12.735Z,56.80
2019-05-06T15:48:39.335Z,56.60
2019-05-06T15:51:06.044Z,56.60
2019-05-06T15:53:33.332Z,56.50
2019-05-06T15:56:00.150Z,56.40
2019-05-06T15:58:26.949Z,56.40
2019-05-06T16:00:53.484Z,56.30
2019-05-06T16:03:22.626Z,56.40
2019-05-06T16:05:48.775Z,56.30
2019-05-06T16:08:17.457Z,56.30
2019-05-06T16:10:52.592Z,56.10
2019-05-06T16:13:12.919Z,56.10
2019-05-06T16:15:42.220Z,56.10
2019-05-06T16:18:08.325Z,56.20
2019-05-06T16:20:35.415Z,56.10
2019-05-06T16:23:09.753Z,56.10
2019-05-06T16:25:36.597Z,56.00
2019-05-06T16:28:03.314Z,55.90
2019-05-06T16:30:29.964Z,55.70
2019-05-06T16:32:56.420Z,55.70
2019-05-06T16:35:23.118Z,55.80
2019-05-06T16:37:49.681Z,55.70
2019-05-06T16:40:16.520Z,55.70
2019-05-06T16:42:45.846Z,40.70
2019-05-06T16:45:12.589Z,34.00
2019-05-06T16:47:40.087Z,38.20
2019-05-06T16:50:09.069Z,41.80
2019-05-06T16:52:35.626Z,43.40
2019-05-06T16:55:06.141Z,43.20
2019-05-06T16:57:33.348Z,44.10
2019-05-06T17:00:02.997Z,44.50
2019-05-06T17:02:32.760Z,45.90
2019-05-06T17:05:12.465Z,46.70
2019-05-06T17:07:45.099Z,47.40
2019-05-06T17:10:16.048Z,47.90
2019-05-06T17:12:43.405Z,48.20
2019-05-06T17:15:10.397Z,48.40
2019-05-06T17:17:43.465Z,48.60
2019-05-06T17:20:06.947Z,49.40
2019-05-06T17:22:37.100Z,49.10
2019-05-06T17:25:06.426Z,48.90
2019-05-06T17:27:36.394Z,49.00
2019-05-06T17:30:09.357Z,49.10
2019-05-06T17:32:42.531Z,49.30
2019-05-06T17:35:12.662Z,49.40
2019-05-06T17:37:58.598Z,49.30
2019-05-06T17:40:35.801Z,49.30
2019-05-06T17:43:02.524Z,49.60
2019-05-06T17:45:59.314Z,49.90
2019-05-06T17:48:36.677Z,50.20
2019-05-06T17:51:13.044Z,50.50
2019-05-06T17:53:43.461Z,51.20
2019-05-06T17:56:14.570Z,51.60
2019-05-06T17:58:42.326Z,53.40
2019-05-06T18:01:15.535Z,54.00
2019-05-06T18:03:44.386Z,54.20
2019-05-06T18:06:14.289Z,55.50
2019-05-06T18:08:43.033Z,56.10
2019-05-06T18:11:13.127Z,58.30
2019-05-06T18:13:46.657Z,60.00
2019-05-06T18:16:17.146Z,63.20
2019-05-06T18:18:43.479Z,61.50
2019-05-06T18:21:12.148Z,61.00
2019-05-06T18:23:38.417Z,61.20
2019-05-06T18:26:05.263Z,59.40
2019-05-06T18:28:32.744Z,60.00
2019-05-06T18:31:04.120Z,59.50
2019-05-06T18:33:32.608Z,60.00
2019-05-06T18:36:02.615Z,59.40
2019-05-06T18:38:33.467Z,59.00
2019-05-06T18:41:02.559Z,59.00
2019-05-06T18:43:33.741Z,58.60
2019-05-06T18:46:02.828Z,58.00
2019-05-06T18:48:32.901Z,58.00
2019-05-06T18:51:00.235Z,58.00
2019-05-06T18:53:28.264Z,57.80
2019-05-06T18:55:59.308Z,58.00
2019-05-06T18:58:26.458Z,57.70
2019-05-06T19:00:57.362Z,57.60
2019-05-06T19:03:34.944Z,57.50
2019-05-06T19:06:08.270Z,57.50
2019-05-06T19:08:57.369Z,57.40
2019-05-06T19:11:32.509Z,57.20
2019-05-06T19:14:02.070Z,57.40
2019-05-06T19:16:30.037Z,57.20
2019-05-06T19:19:03.692Z,57.10
2019-05-06T19:21:31.943Z,57.20
2019-05-06T19:24:02.720Z,57.10
2019-05-06T19:26:32.840Z,57.00
2019-05-06T19:29:00.306Z,57.60
2019-05-06T19:31:32.113Z,57.00
2019-05-06T19:34:03.182Z,56.90
2019-05-06T19:36:28.786Z,57.70
2019-05-06T19:39:02.292Z,58.20
2019-05-06T19:41:33.520Z,57.80
2019-05-06T19:44:03.703Z,57.70
2019-05-06T19:46:32.999Z,57.70
2019-05-06T19:49:10.448Z,57.70
2019-05-06T19:51:37.314Z,57.70
2019-05-06T19:54:04.670Z,57.70
2019-05-06T19:56:32.150Z,57.70
2019-05-06T19:58:58.794Z,57.40
2019-05-06T20:01:29.198Z,57.20
2019-05-06T20:03:58.592Z,57.10
2019-05-06T20:06:44.975Z,57.10
2019-05-06T20:09:33.068Z,57.40
2019-05-06T20:12:02.854Z,56.80
2019-05-06T20:14:30.167Z,56.90
2019-05-06T20:16:57.353Z,56.80
2019-05-06T20:19:30.705Z,56.90
2019-05-06T20:21:56.918Z,56.80
2019-05-06T20:24:25.096Z,56.70
2019-05-06T20:26:52.854Z,56.70
2019-05-06T20:29:19.411Z,56.80
2019-05-06T20:31:46.180Z,56.80
2019-05-06T20:34:12.914Z,56.90
2019-05-06T20:36:41.779Z,56.80
2019-05-06T20:39:08.402Z,56.80
2019-05-06T20:41:35.353Z,57.00
2019-05-06T20:44:02.754Z,56.70
2019-05-06T20:46:29.645Z,56.60
2019-05-06T20:48:56.179Z,57.00
2019-05-06T20:51:23.168Z,56.60
2019-05-06T20:53:49.700Z,56.70
2019-05-06T20:56:16.061Z,56.60
2019-05-06T20:58:42.597Z,56.60
2019-05-06T21:01:09.151Z,56.60
2019-05-06T21:03:36.059Z,56.50
2019-05-06T21:06:02.490Z,56.60
2019-05-06T21:08:29.323Z,56.50
2019-05-06T21:10:55.963Z,56.40
2019-05-06T21:13:31.850Z,56.70
2019-05-06T21:15:50.573Z,56.50
2019-05-06T21:18:17.482Z,56.50
2019-05-06T21:20:44.215Z,56.30
2019-05-06T21:23:10.859Z,56.40
2019-05-06T21:25:37.628Z,56.30
2019-05-06T21:28:04.371Z,56.40
2019-05-06T21:30:32.349Z,56.40
2019-05-06T21:32:59.127Z,56.40
2019-05-06T21:35:25.559Z,56.30
2019-05-06T21:37:52.904Z,56.20
2019-05-06T21:40:19.527Z,56.10
2019-05-06T21:42:45.851Z,56.30
2019-05-06T21:45:12.755Z,56.20
2019-05-06T21:47:39.280Z,56.10
2019-05-06T21:50:06.327Z,56.10
2019-05-06T21:52:39.299Z,56.70
2019-05-06T21:55:02.550Z,56.10
2019-05-06T21:57:29.332Z,56.00
2019-05-06T21:59:55.757Z,56.00
2019-05-06T22:02:23.128Z,55.90
2019-05-06T22:04:49.739Z,55.90
2019-05-06T22:07:16.692Z,55.90
2019-05-06T22:09:43.107Z,56.00
2019-05-06T22:12:09.754Z,56.00
2019-05-06T22:14:36.039Z,56.00
2019-05-06T22:17:04.412Z,56.00
2019-05-06T22:19:32.059Z,56.00
2019-05-06T22:22:03.194Z,56.00
2019-05-06T22:24:40.031Z,56.00
2019-05-06T22:27:06.720Z,56.10
2019-05-06T22:29:33.147Z,56.00
2019-05-06T22:32:00.165Z,56.10
2019-05-06T22:34:27.047Z,56.10
2019-05-06T22:36:54.322Z,56.20
2019-05-06T22:39:22.669Z,56.20
2019-05-06T22:41:49.377Z,56.20
2019-05-06T22:44:17.144Z,56.40
2019-05-06T22:46:43.861Z,56.30
2019-05-06T22:49:10.383Z,56.40
2019-05-06T22:51:36.968Z,56.30
2019-05-06T22:54:03.607Z,56.30
2019-05-06T22:56:32.522Z,56.90
2019-05-06T22:58:58.823Z,56.30
2019-05-06T23:01:36.173Z,56.30
2019-05-06T23:04:03.455Z,56.20
2019-05-06T23:06:29.978Z,56.30
2019-05-06T23:08:56.677Z,56.30
2019-05-06T23:11:23.719Z,57.00
2019-05-06T23:13:50.348Z,56.40
2019-05-06T23:16:16.909Z,56.30
2019-05-06T23:18:43.581Z,56.20
2019-05-06T23:21:11.796Z,56.60
2019-05-06T23:23:38.186Z,56.70
2019-05-06T23:26:18.567Z,56.70
2019-05-06T23:28:45.903Z,56.90
2019-05-06T23:31:12.423Z,56.90
2019-05-06T23:33:39.497Z,56.90
2019-05-06T23:36:06.259Z,56.80
2019-05-06T23:39:10.043Z,56.80
2019-05-06T23:42:14.079Z,56.70
2019-05-06T23:45:17.756Z,56.90
2019-05-06T23:48:22.879Z,56.80
2019-05-06T23:51:26.759Z,57.00
2019-05-06T23:54:32.763Z,56.80
2019-05-06T23:56:59.107Z,57.00
2019-05-06T23:59:25.953Z,56.90
